Dike, IA

1:59 AM CDT on August 29, 2014 (GMT -0500)
Scout Creek | Change Station
CLOSE
Current Station
Personal Weather Station
Location: Reinbeck, IA
Elevation: 942 ft
Nearby Weather Stations

Elev 942 ft 42.34 °N, 92.55 °W | Updated 15 minutes ago

Thunderstorm
Thunderstorm
68.5 °F
Feels Like 68.5 °F
N
4.2
Wind Variable Wind from SSW

Today
High -- | Low -- °F
--% Chance of Precip.
Yesterday
High -- | Low -- °F
Precip. -- in
6:32 AM 7:49 PM
Waxing Crescent, 12% visible
Pressure 29.92 in
Visibility 2.5 miles
Clouds Few 1500 ft
Mostly Cloudy 6000 ft
Overcast 10000 ft
Dew Point 68 °F
Humidity 99%
Rainfall 0.10 in
Snow Depth Not available.
UV 0 out of 12
Pollen 1.00 out of 12
Air Quality Not available.
Flu Activity Not available.
METAR KALO 290654Z 17007KT 2 1/2SM VCTS RA BR FEW015 BKN060 OVC100 21/19 A2993 RMK AO2 WSHFT 0604 LTG DSNT N AND SE AND S TSB32E49 SLP130 P0009 T02060194

More Conditions Fewer Conditions

Pressure 29.92 in
Visibility 2.5 miles
Clouds Few 1500 ft
Mostly Cloudy 6000 ft
Overcast 10000 ft
Dew Point 68 °F
Humidity 99%
Rainfall 0.10 in
Snow Depth Not available.
UV 0 out of 12
Pollen 1.00 out of 12
Air Quality Not available.
Flu Activity Not available.
METAR KALO 290654Z 17007KT 2 1/2SM VCTS RA BR FEW015 BKN060 OVC100 21/19 A2993 RMK AO2 WSHFT 0604 LTG DSNT N AND SE AND S TSB32E49 SLP130 P0009 T02060194

More Conditions Fewer Conditions

10-Day Weather Forecast

Almanac

Astronomy

Aug. 29, 2014 Rise Set
Actual Time 6:32 AM CDT 7:49 PM CDT
Civil Twilight 6:03 AM CDT 8:18 PM CDT
Nautical Twilight 5:28 AM CDT 8:53 PM CDT
Astronomical Twilight 4:51 AM CDT 9:30 PM CDT
Moon 10:28 AM CDT 9:41 PM CDT
Length of Visible Light 14h 15m
Length of Day
13h 17m
Tomorrow will be 2m 44s shorter.
Waxing Crescent, 12% of the Moon is Illuminated
Today
Waxing Crescent
Sep 2
First Quarter
Sep 8
Full
Sep 15
Last Quarter
Sep 24
New

Today's Extremes

State Highs State Lows

Community

WunderPhotos

Upload Photos

1,748,197 photos uploaded!

Nearby

Snow Depth

Station Depth Elevation
No new snow has been reported.

Earthquake Activity

City Distance Mag. Time & Date
No recent earthquake activity has been reported nearby.
Minimum magnitude displayed is 2.5.

Coastal Water Temperatures

Place Temperature
No Stations Reporting

Nearby Weather Stations